createdAt,value
2023-11-28T00:01:50.322Z,36.85
2023-11-28T00:04:17.922Z,34.97
2023-11-28T00:06:45.161Z,37.55
2023-11-28T00:09:12.465Z,34.85
2023-11-28T00:11:39.802Z,38.33
2023-11-28T00:14:07.178Z,34.00
2023-11-28T00:16:34.467Z,46.33
2023-11-28T00:19:01.894Z,37.00
2023-11-28T00:21:29.184Z,35.40
2023-11-28T00:23:56.548Z,35.28
2023-11-28T00:26:23.684Z,34.20
2023-11-28T00:28:51.383Z,38.92
2023-11-28T00:31:18.715Z,37.72
2023-11-28T00:33:46.720Z,31.60
2023-11-28T00:36:18.193Z,34.53
2023-11-28T00:38:45.510Z,33.13
2023-11-28T00:41:13.431Z,39.85
2023-11-28T00:43:40.690Z,33.33
2023-11-28T00:46:09.440Z,32.33
2023-11-28T00:48:37.069Z,55.70
2023-11-28T00:51:06.949Z,75.57
2023-11-28T00:53:34.572Z,53.22
2023-11-28T00:56:01.887Z,74.35
2023-11-28T00:58:29.609Z,106.15
2023-11-28T01:00:57.306Z,62.30
2023-11-28T01:03:24.959Z,61.03
2023-11-28T01:05:52.451Z,45.05
2023-11-28T01:08:19.845Z,35.95
2023-11-28T01:10:47.404Z,64.72
2023-11-28T01:13:14.730Z,34.50
2023-11-28T01:15:42.470Z,73.82
2023-11-28T01:18:09.837Z,49.70
2023-11-28T01:20:37.221Z,72.72
2023-11-28T01:23:05.155Z,64.97
2023-11-28T01:25:32.754Z,81.53
2023-11-28T01:28:00.186Z,49.35
2023-11-28T01:30:27.518Z,61.88
2023-11-28T01:32:55.345Z,42.42
2023-11-28T01:35:22.936Z,39.25
2023-11-28T01:37:50.324Z,36.40
2023-11-28T01:40:18.309Z,37.05
2023-11-28T01:42:48.465Z,42.67
2023-11-28T01:45:16.437Z,33.03
2023-11-28T01:47:44.013Z,48.83
2023-11-28T01:50:11.791Z,52.15
2023-11-28T01:52:40.174Z,48.58
2023-11-28T01:55:08.317Z,55.83
2023-11-28T01:57:35.804Z,32.42
2023-11-28T02:00:05.379Z,118.85
2023-11-28T02:02:33.901Z,34.08
2023-11-28T02:05:01.450Z,57.05
2023-11-28T02:07:29.237Z,70.38
2023-11-28T02:09:57.832Z,54.92
2023-11-28T02:12:26.096Z,52.25
2023-11-28T02:14:54.372Z,52.85
2023-11-28T02:17:21.756Z,50.42
2023-11-28T02:19:52.508Z,67.57
2023-11-28T02:22:20.269Z,52.88
2023-11-28T02:24:54.563Z,47.38
2023-11-28T02:27:22.223Z,46.42
2023-11-28T02:29:49.579Z,74.30
2023-11-28T02:32:17.167Z,43.30
2023-11-28T02:34:44.838Z,40.90
2023-11-28T02:37:12.567Z,54.10
2023-11-28T02:39:40.133Z,51.90
2023-11-28T02:42:07.598Z,42.70
2023-11-28T02:44:35.044Z,43.08
2023-11-28T02:47:02.650Z,57.75
2023-11-28T02:49:30.104Z,32.78
2023-11-28T02:51:57.444Z,30.38
2023-11-28T02:54:25.848Z,30.60
2023-11-28T02:56:55.196Z,32.63
2023-11-28T02:59:22.502Z,29.80
2023-11-28T03:01:56.033Z,30.98
2023-11-28T03:04:24.077Z,29.60
2023-11-28T03:06:52.301Z,27.65
2023-11-28T03:09:20.667Z,31.02
2023-11-28T03:11:48.404Z,34.30
2023-11-28T03:14:15.811Z,32.85
2023-11-28T03:16:43.229Z,31.33
2023-11-28T03:19:12.591Z,28.30
2023-11-28T03:21:40.547Z,24.27
2023-11-28T03:24:09.301Z,25.48
2023-11-28T03:26:36.792Z,23.55
2023-11-28T03:29:04.572Z,23.35
2023-11-28T03:31:32.248Z,27.00
2023-11-28T03:33:59.858Z,24.05
2023-11-28T03:36:27.733Z,22.75
2023-11-28T03:38:56.003Z,20.15
2023-11-28T03:41:23.562Z,23.10
2023-11-28T03:43:52.568Z,20.13
2023-11-28T03:46:20.610Z,22.35
2023-11-28T03:48:48.447Z,22.45
2023-11-28T03:51:17.206Z,20.52
2023-11-28T03:53:45.019Z,21.08
2023-11-28T03:56:14.048Z,21.83
2023-11-28T03:58:41.908Z,24.05
2023-11-28T04:01:09.693Z,23.25
2023-11-28T04:03:37.817Z,20.27
2023-11-28T04:06:07.161Z,25.70
2023-11-28T04:08:35.357Z,23.02
2023-11-28T04:11:03.515Z,23.75
2023-11-28T04:13:31.744Z,22.85
2023-11-28T04:16:00.159Z,22.08
2023-11-28T04:18:32.310Z,23.48
2023-11-28T04:21:00.607Z,25.20
2023-11-28T04:23:27.848Z,20.70
2023-11-28T04:25:55.658Z,20.95
2023-11-28T04:28:22.983Z,21.02
2023-11-28T04:30:51.231Z,21.08
2023-11-28T04:33:19.445Z,23.13
2023-11-28T04:35:46.892Z,20.45
2023-11-28T04:38:14.249Z,21.52
2023-11-28T04:40:41.918Z,23.20
2023-11-28T04:43:09.833Z,20.00
2023-11-28T04:45:37.742Z,22.77
2023-11-28T04:48:05.433Z,19.45
2023-11-28T04:50:33.575Z,20.00
2023-11-28T04:53:00.979Z,20.42
2023-11-28T04:55:29.471Z,23.55
2023-11-28T04:57:57.387Z,27.05
2023-11-28T05:00:24.568Z,25.58
2023-11-28T05:02:53.162Z,25.48
2023-11-28T05:05:20.929Z,23.73
2023-11-28T05:07:48.615Z,25.80
2023-11-28T05:10:16.863Z,24.98
2023-11-28T05:12:45.388Z,26.08
2023-11-28T05:15:13.594Z,20.83
2023-11-28T05:17:41.866Z,22.23
2023-11-28T05:20:11.213Z,21.42
2023-11-28T05:22:40.215Z,23.17
2023-11-28T05:25:08.125Z,23.00
2023-11-28T05:27:36.547Z,23.88
2023-11-28T05:30:04.293Z,21.77
2023-11-28T05:32:32.110Z,20.70
2023-11-28T05:34:59.820Z,22.15
2023-11-28T05:37:27.192Z,21.13
2023-11-28T05:39:54.538Z,20.40
2023-11-28T05:42:22.343Z,19.88
2023-11-28T05:44:50.832Z,21.73
2023-11-28T05:47:20.102Z,21.38
2023-11-28T05:49:48.471Z,20.45
2023-11-28T05:52:16.609Z,18.08
2023-11-28T05:54:44.577Z,17.80
2023-11-28T05:57:12.537Z,16.90
2023-11-28T05:59:39.883Z,21.20
2023-11-28T06:02:11.790Z,18.20
2023-11-28T06:04:39.759Z,18.55
2023-11-28T06:07:08.035Z,19.42
2023-11-28T06:09:35.570Z,18.63
2023-11-28T06:12:04.822Z,23.17
2023-11-28T06:14:35.009Z,24.48
2023-11-28T06:17:02.583Z,21.48
2023-11-28T06:19:31.362Z,22.00
2023-11-28T06:21:59.168Z,25.67
2023-11-28T06:24:26.647Z,26.42
2023-11-28T06:26:55.206Z,27.92
2023-11-28T06:29:23.425Z,26.13
2023-11-28T06:31:51.898Z,22.65
2023-11-28T06:34:20.001Z,23.90
2023-11-28T06:36:49.974Z,21.17
2023-11-28T06:39:20.086Z,22.73
2023-11-28T06:41:51.712Z,24.40
2023-11-28T06:44:22.252Z,23.23
2023-11-28T06:46:49.749Z,27.30
2023-11-28T06:49:17.312Z,24.98
2023-11-28T06:51:45.158Z,24.15
2023-11-28T06:54:13.230Z,23.80
2023-11-28T06:56:41.005Z,22.40
2023-11-28T06:59:08.293Z,25.33
2023-11-28T07:01:36.168Z,25.00
2023-11-28T07:04:03.971Z,26.50
2023-11-28T07:06:32.214Z,21.83
2023-11-28T07:09:00.015Z,20.50
2023-11-28T07:11:27.292Z,21.98
2023-11-28T07:13:56.042Z,20.65
2023-11-28T07:16:24.469Z,22.77
2023-11-28T07:18:52.415Z,22.63
2023-11-28T07:21:20.912Z,23.27
2023-11-28T07:23:49.058Z,22.05
2023-11-28T07:26:17.232Z,23.40
2023-11-28T07:28:44.831Z,22.27
2023-11-28T07:31:15.400Z,23.50
2023-11-28T07:33:43.144Z,22.50
2023-11-28T07:36:13.066Z,21.33
2023-11-28T07:38:44.612Z,20.65
2023-11-28T07:41:18.419Z,24.85
2023-11-28T07:43:45.885Z,30.83
2023-11-28T07:46:13.941Z,24.75
2023-11-28T07:48:43.316Z,26.00
2023-11-28T07:51:11.232Z,30.25
2023-11-28T07:53:38.930Z,30.02
2023-11-28T07:56:07.360Z,34.30
2023-11-28T07:58:35.767Z,32.05
2023-11-28T08:01:03.113Z,33.75
2023-11-28T08:03:30.811Z,32.95
2023-11-28T08:05:58.599Z,35.47
2023-11-28T08:08:26.114Z,69.05
2023-11-28T08:10:53.854Z,63.35
2023-11-28T08:13:22.989Z,59.28
2023-11-28T08:15:53.979Z,50.25
2023-11-28T08:18:21.689Z,32.92
2023-11-28T08:20:49.640Z,28.35
2023-11-28T08:23:17.219Z,31.95
2023-11-28T08:25:44.490Z,28.60
2023-11-28T08:28:12.748Z,29.35
2023-11-28T08:30:40.147Z,26.75
2023-11-28T08:33:07.413Z,27.67
2023-11-28T08:35:35.145Z,28.67
2023-11-28T08:38:02.644Z,26.25
2023-11-28T08:40:30.971Z,24.92
2023-11-28T08:42:58.911Z,29.23
2023-11-28T08:45:26.920Z,26.55
2023-11-28T08:47:54.485Z,27.45
2023-11-28T08:50:22.112Z,28.70
2023-11-28T08:52:50.047Z,25.45
2023-11-28T08:55:17.703Z,26.55
2023-11-28T08:57:46.194Z,30.85
2023-11-28T09:00:16.863Z,27.52
2023-11-28T09:02:46.743Z,31.90
2023-11-28T09:05:16.355Z,27.98
2023-11-28T09:07:45.315Z,32.30
2023-11-28T09:10:13.478Z,29.23
2023-11-28T09:12:41.085Z,26.60
2023-11-28T09:15:09.392Z,29.58
2023-11-28T09:17:38.217Z,29.35
2023-11-28T09:20:06.686Z,27.35
2023-11-28T09:22:34.831Z,26.88
2023-11-28T09:25:02.723Z,27.02
2023-11-28T09:27:30.808Z,28.70
2023-11-28T09:29:58.832Z,27.42
2023-11-28T09:32:27.440Z,32.20
2023-11-28T09:34:55.148Z,33.17
2023-11-28T09:37:24.159Z,30.10
2023-11-28T09:39:51.982Z,31.98
2023-11-28T09:42:23.769Z,35.30
2023-11-28T09:44:53.985Z,38.65
2023-11-28T09:47:26.049Z,36.10
2023-11-28T09:49:59.102Z,32.88
2023-11-28T09:52:31.418Z,34.60
2023-11-28T09:55:01.027Z,39.65
2023-11-28T09:57:35.812Z,38.67
2023-11-28T10:00:06.585Z,45.63
2023-11-28T10:02:34.653Z,47.53
2023-11-28T10:05:02.291Z,46.95
2023-11-28T10:07:36.970Z,45.83
2023-11-28T10:10:13.922Z,44.22
2023-11-28T10:12:41.727Z,49.03
2023-11-28T10:15:12.064Z,53.75
2023-11-28T10:17:39.864Z,73.63
2023-11-28T10:20:09.471Z,78.07
2023-11-28T10:22:39.239Z,68.30
2023-11-28T10:25:12.792Z,52.05
2023-11-28T10:27:45.508Z,48.05
2023-11-28T10:30:17.730Z,46.95
2023-11-28T10:32:45.226Z,41.13
2023-11-28T10:35:12.688Z,50.05
2023-11-28T10:37:42.194Z,40.72
2023-11-28T10:40:21.028Z,41.30
2023-11-28T10:42:50.530Z,37.28
2023-11-28T10:45:20.776Z,37.20
2023-11-28T10:47:48.261Z,38.58
2023-11-28T10:50:15.998Z,35.45
2023-11-28T10:52:48.598Z,42.17
2023-11-28T10:55:25.752Z,45.55
2023-11-28T10:58:03.995Z,53.97
2023-11-28T11:00:41.465Z,56.05
2023-11-28T11:03:11.527Z,61.58
2023-11-28T11:05:39.083Z,54.13
2023-11-28T11:08:06.945Z,48.47
2023-11-28T11:10:34.605Z,42.63
2023-11-28T11:13:29.377Z,41.35
2023-11-28T11:16:08.996Z,41.22
2023-11-28T11:18:43.727Z,48.85
2023-11-28T11:21:36.373Z,50.50
2023-11-28T11:24:04.152Z,46.78
2023-11-28T11:26:42.419Z,44.08
2023-11-28T11:29:28.432Z,47.10
2023-11-28T11:32:01.806Z,42.53
2023-11-28T11:34:51.317Z,50.38
2023-11-28T11:37:32.189Z,45.38
2023-11-28T11:40:03.455Z,47.95
2023-11-28T11:42:36.188Z,52.63
2023-11-28T11:45:07.836Z,44.22
2023-11-28T11:47:40.696Z,43.15
2023-11-28T11:50:09.907Z,47.42
2023-11-28T11:52:39.435Z,51.20
2023-11-28T11:55:13.992Z,50.25
2023-11-28T11:57:46.618Z,45.97
2023-11-28T12:00:17.420Z,45.30
2023-11-28T12:02:46.323Z,38.65
2023-11-28T12:05:15.693Z,43.50
2023-11-28T12:07:44.877Z,44.15
2023-11-28T12:10:14.624Z,44.08
2023-11-28T12:12:43.051Z,41.22
2023-11-28T12:15:14.913Z,47.05
2023-11-28T12:17:43.338Z,47.53
2023-11-28T12:20:12.303Z,46.90
2023-11-28T12:22:41.597Z,51.10
2023-11-28T12:25:20.068Z,49.38
2023-11-28T12:27:47.971Z,49.38
2023-11-28T12:30:16.115Z,54.53
2023-11-28T12:32:44.098Z,52.13
2023-11-28T12:35:12.640Z,49.78
2023-11-28T12:37:39.947Z,50.78
2023-11-28T12:40:11.412Z,47.08
2023-11-28T12:42:48.098Z,51.47
2023-11-28T12:45:19.185Z,48.50
2023-11-28T12:47:48.470Z,52.40
2023-11-28T12:50:16.660Z,48.08
2023-11-28T12:52:44.904Z,53.45
2023-11-28T12:55:13.066Z,43.63
2023-11-28T12:57:40.871Z,44.92
2023-11-28T13:00:08.905Z,44.85
2023-11-28T13:02:36.857Z,39.92
2023-11-28T13:05:05.658Z,43.10
2023-11-28T13:07:38.654Z,43.38
2023-11-28T13:10:14.271Z,43.67
2023-11-28T13:12:43.221Z,44.47
2023-11-28T13:15:12.709Z,46.03
2023-11-28T13:17:40.677Z,44.65
2023-11-28T13:20:09.539Z,42.83
2023-11-28T13:22:38.793Z,41.50
2023-11-28T13:25:07.214Z,43.28
2023-11-28T13:27:36.788Z,43.20
2023-11-28T13:30:06.688Z,41.45
2023-11-28T13:32:34.276Z,39.35
2023-11-28T13:35:02.876Z,39.63
2023-11-28T13:37:30.994Z,37.88
2023-11-28T13:40:00.531Z,40.47
2023-11-28T13:42:28.282Z,38.33
2023-11-28T13:44:56.592Z,44.13
2023-11-28T13:47:23.980Z,42.40
2023-11-28T13:49:53.279Z,42.63
2023-11-28T13:52:20.683Z,44.65
2023-11-28T13:54:48.910Z,42.33
2023-11-28T13:57:16.086Z,41.72
2023-11-28T13:59:43.497Z,40.08
2023-11-28T14:02:10.935Z,42.67
2023-11-28T14:04:38.319Z,49.85
2023-11-28T14:07:05.837Z,60.53
2023-11-28T14:09:33.118Z,55.60
2023-11-28T14:12:01.261Z,46.92
2023-11-28T14:14:34.636Z,47.38
2023-11-28T14:17:09.184Z,86.82
2023-11-28T14:19:37.805Z,144.15
2023-11-28T14:22:05.827Z,116.60
2023-11-28T14:24:33.227Z,198.65
2023-11-28T14:27:01.114Z,89.43
2023-11-28T14:29:29.305Z,72.88
2023-11-28T14:31:56.731Z,56.30
2023-11-28T14:34:25.358Z,56.80
2023-11-28T14:36:53.177Z,58.03
2023-11-28T14:39:20.988Z,56.03
2023-11-28T14:41:48.405Z,58.28
2023-11-28T14:44:16.287Z,53.63
2023-11-28T14:46:43.675Z,60.10
2023-11-28T14:49:11.098Z,58.88
2023-11-28T14:51:38.628Z,59.42
2023-11-28T14:54:12.634Z,58.58
2023-11-28T14:56:40.932Z,64.53
2023-11-28T14:59:10.625Z,63.67
2023-11-28T15:01:39.952Z,66.22
2023-11-28T15:04:07.792Z,64.65
2023-11-28T15:06:35.189Z,67.30
2023-11-28T15:09:04.902Z,69.18
2023-11-28T15:11:32.983Z,74.20
2023-11-28T15:14:00.450Z,77.53
2023-11-28T15:16:28.430Z,81.93
2023-11-28T15:18:55.931Z,82.35
2023-11-28T15:21:23.383Z,109.57
2023-11-28T15:23:51.776Z,100.80
2023-11-28T15:26:22.261Z,100.20
2023-11-28T15:28:51.682Z,96.45
2023-11-28T15:31:19.214Z,79.70
2023-11-28T15:33:46.805Z,77.55
2023-11-28T15:36:14.481Z,82.57
2023-11-28T15:38:42.995Z,85.90
2023-11-28T15:41:10.479Z,79.68
2023-11-28T15:43:37.888Z,77.85
2023-11-28T15:46:05.253Z,77.82
2023-11-28T15:48:32.594Z,80.28
2023-11-28T15:51:00.566Z,95.57
2023-11-28T15:53:29.092Z,110.47
2023-11-28T15:55:56.415Z,123.65
2023-11-28T15:58:23.736Z,143.00
2023-11-28T16:00:51.333Z,148.90
2023-11-28T16:03:18.852Z,133.77
2023-11-28T16:05:47.819Z,126.82
2023-11-28T16:08:17.610Z,130.63
2023-11-28T16:10:44.935Z,143.50
2023-11-28T16:13:16.733Z,148.07
2023-11-28T16:15:44.900Z,168.20
2023-11-28T16:18:12.640Z,172.95
2023-11-28T16:20:40.545Z,181.18
2023-11-28T16:23:08.228Z,176.52
2023-11-28T16:25:35.615Z,165.48
2023-11-28T16:28:04.038Z,147.85
2023-11-28T16:30:31.516Z,192.38
2023-11-28T16:32:59.026Z,193.75
2023-11-28T16:35:28.065Z,228.05
2023-11-28T16:37:56.914Z,182.45
2023-11-28T16:40:25.108Z,153.57
2023-11-28T16:42:54.048Z,143.95
2023-11-28T16:45:22.482Z,147.05
2023-11-28T16:47:51.308Z,153.68
2023-11-28T16:50:19.808Z,135.43
2023-11-28T16:52:47.014Z,121.97
2023-11-28T16:55:20.159Z,115.20
2023-11-28T16:57:48.282Z,122.65
2023-11-28T17:00:17.188Z,116.63
2023-11-28T17:02:44.663Z,112.45
2023-11-28T17:05:12.847Z,105.18
2023-11-28T17:07:43.623Z,108.93
2023-11-28T17:10:10.893Z,102.15
2023-11-28T17:12:38.129Z,115.13
2023-11-28T17:15:06.057Z,140.52
2023-11-28T17:17:34.002Z,192.48
2023-11-28T17:20:01.468Z,209.43
2023-11-28T17:22:29.310Z,205.07
2023-11-28T17:24:57.557Z,176.80
2023-11-28T17:27:26.474Z,179.57
2023-11-28T17:29:53.787Z,145.48
2023-11-28T17:32:22.125Z,104.30
2023-11-28T17:34:50.670Z,89.50
2023-11-28T17:37:18.856Z,99.22
2023-11-28T17:39:47.360Z,96.15
2023-11-28T17:42:14.832Z,104.90
2023-11-28T17:44:43.207Z,119.82
2023-11-28T17:47:10.683Z,155.30
2023-11-28T17:49:39.183Z,175.55
2023-11-28T17:52:07.065Z,163.52
2023-11-28T17:54:34.739Z,138.38
2023-11-28T17:57:02.402Z,93.20
2023-11-28T17:59:31.133Z,81.70
2023-11-28T18:02:00.347Z,94.40
2023-11-28T18:04:28.156Z,106.13
2023-11-28T18:06:59.554Z,209.88
2023-11-28T18:09:27.269Z,175.32
2023-11-28T18:11:54.463Z,102.32
2023-11-28T18:14:22.623Z,87.68
2023-11-28T18:16:50.216Z,78.00
2023-11-28T18:19:17.615Z,78.55
2023-11-28T18:21:46.494Z,76.10
2023-11-28T18:24:15.187Z,75.03
2023-11-28T18:26:43.411Z,74.85
2023-11-28T18:29:14.813Z,74.68
2023-11-28T18:31:43.828Z,65.07
2023-11-28T18:34:11.263Z,59.17
2023-11-28T18:36:41.507Z,52.92
2023-11-28T18:39:09.648Z,51.03
2023-11-28T18:41:42.702Z,53.53
2023-11-28T18:44:13.647Z,91.95
2023-11-28T18:49:10.471Z,134.88
2023-11-28T18:51:38.441Z,109.07
2023-11-28T18:54:06.323Z,91.53
2023-11-28T18:56:34.999Z,64.93
2023-11-28T18:59:02.823Z,62.55
2023-11-28T19:01:33.538Z,65.18
2023-11-28T19:04:01.103Z,58.20
2023-11-28T19:06:30.946Z,59.22
2023-11-28T19:08:59.237Z,58.55
2023-11-28T19:11:29.938Z,52.90
2023-11-28T19:14:04.643Z,50.75
2023-11-28T19:16:35.273Z,56.95
2023-11-28T19:19:02.909Z,79.40
2023-11-28T19:21:30.227Z,58.35
2023-11-28T19:23:57.570Z,57.08
2023-11-28T19:26:24.997Z,64.80
2023-11-28T19:28:52.315Z,62.08
2023-11-28T19:31:19.983Z,66.63
2023-11-28T19:33:47.945Z,70.22
2023-11-28T19:36:15.185Z,72.47
2023-11-28T19:38:43.821Z,78.68
2023-11-28T19:41:13.714Z,65.38
2023-11-28T19:43:41.108Z,55.00
2023-11-28T19:46:09.490Z,55.65
2023-11-28T19:48:45.030Z,55.15
2023-11-28T19:51:13.455Z,48.15
2023-11-28T19:53:44.764Z,47.33
2023-11-28T19:56:12.700Z,44.90
2023-11-28T19:58:40.835Z,44.47
2023-11-28T20:01:09.306Z,42.38
2023-11-28T20:03:39.744Z,44.00
2023-11-28T20:06:07.993Z,41.20
2023-11-28T20:08:36.811Z,41.67
2023-11-28T20:11:04.725Z,42.63
2023-11-28T20:13:32.450Z,40.72
2023-11-28T20:16:02.768Z,42.42
2023-11-28T20:18:31.389Z,46.75
2023-11-28T20:20:58.751Z,48.67
2023-11-28T20:23:25.975Z,47.25
2023-11-28T20:25:55.113Z,47.95
2023-11-28T20:28:23.312Z,43.15
2023-11-28T20:30:51.600Z,64.93
2023-11-28T20:33:19.107Z,48.80
2023-11-28T20:35:46.799Z,48.58
2023-11-28T20:38:14.805Z,50.35
2023-11-28T20:40:42.073Z,49.92
2023-11-28T20:43:12.254Z,46.80
2023-11-28T20:45:39.766Z,45.10
2023-11-28T20:48:07.395Z,59.50
2023-11-28T20:50:34.866Z,52.33
2023-11-28T20:53:03.787Z,51.00
2023-11-28T20:55:31.294Z,48.15
2023-11-28T20:58:02.130Z,44.85
2023-11-28T21:00:30.538Z,47.33
2023-11-28T21:02:58.130Z,48.45
2023-11-28T21:05:25.706Z,49.08
2023-11-28T21:07:53.077Z,57.70
2023-11-28T21:10:20.535Z,107.82
2023-11-28T21:12:50.544Z,169.90
2023-11-28T21:15:19.456Z,113.38
2023-11-28T21:17:46.949Z,55.50
2023-11-28T21:20:14.697Z,51.95
2023-11-28T21:22:42.679Z,59.08
2023-11-28T21:25:10.132Z,57.38
2023-11-28T21:27:37.375Z,52.88
2023-11-28T21:30:05.504Z,45.42
2023-11-28T21:32:32.783Z,46.95
2023-11-28T21:35:00.095Z,46.53
2023-11-28T21:37:28.968Z,49.83
2023-11-28T21:39:56.304Z,47.40
2023-11-28T21:42:23.638Z,48.88
2023-11-28T21:44:51.368Z,49.05
2023-11-28T21:47:22.692Z,52.83
2023-11-28T21:49:54.259Z,49.33
2023-11-28T21:52:26.207Z,53.67
2023-11-28T21:54:54.265Z,53.17
2023-11-28T21:57:21.742Z,50.92
2023-11-28T21:59:49.020Z,46.33
2023-11-28T22:02:16.717Z,43.25
2023-11-28T22:04:44.361Z,49.03
2023-11-28T22:07:11.959Z,45.58
2023-11-28T22:09:39.203Z,56.75
2023-11-28T22:12:07.925Z,57.45
2023-11-28T22:14:35.735Z,53.95
2023-11-28T22:17:04.028Z,59.03
2023-11-28T22:19:31.683Z,62.22
2023-11-28T22:21:59.014Z,47.38
2023-11-28T22:24:26.545Z,50.10
2023-11-28T22:26:54.690Z,45.47
2023-11-28T22:29:22.923Z,46.67
2023-11-28T22:31:51.426Z,48.70
2023-11-28T22:34:19.240Z,56.05
2023-11-28T22:36:47.111Z,77.68
2023-11-28T22:39:14.489Z,75.72
2023-11-28T22:41:42.095Z,59.50
2023-11-28T22:44:11.105Z,42.35
2023-11-28T22:46:39.702Z,37.88
2023-11-28T22:49:07.133Z,35.72
2023-11-28T22:51:35.023Z,40.10
2023-11-28T22:54:02.850Z,41.45
2023-11-28T22:56:31.496Z,42.20
2023-11-28T22:59:02.497Z,37.17
2023-11-28T23:01:30.887Z,38.40
2023-11-28T23:04:00.516Z,45.25
2023-11-28T23:06:28.434Z,36.42
2023-11-28T23:08:56.663Z,33.47
2023-11-28T23:11:24.771Z,36.60
2023-11-28T23:13:52.241Z,45.67
2023-11-28T23:16:19.898Z,35.70
2023-11-28T23:18:47.277Z,36.22
2023-11-28T23:21:14.644Z,38.28
2023-11-28T23:23:42.082Z,34.40
2023-11-28T23:26:09.495Z,32.92
2023-11-28T23:28:37.003Z,35.45
2023-11-28T23:31:04.554Z,33.88
2023-11-28T23:33:31.888Z,37.33
2023-11-28T23:35:59.159Z,34.97
2023-11-28T23:38:26.411Z,30.63
2023-11-28T23:40:54.132Z,33.17
2023-11-28T23:43:21.573Z,31.88
2023-11-28T23:45:49.412Z,32.60
2023-11-28T23:48:16.761Z,35.13
2023-11-28T23:50:44.703Z,39.38
2023-11-28T23:53:12.560Z,38.13
2023-11-28T23:55:39.837Z,32.50
2023-11-28T23:58:07.050Z,36.65
